createdAt,value
2018-05-10T00:00:21.646Z,55.30
2018-05-10T00:02:49.230Z,55.30
2018-05-10T00:05:16.872Z,55.20
2018-05-10T00:07:44.492Z,55.30
2018-05-10T00:10:12.850Z,55.10
2018-05-10T00:12:40.439Z,55.10
2018-05-10T00:15:08.798Z,55.10
2018-05-10T00:17:36.359Z,55.00
2018-05-10T00:20:03.982Z,55.10
2018-05-10T00:22:31.538Z,55.10
2018-05-10T00:24:59.099Z,55.10
2018-05-10T00:27:26.791Z,55.10
2018-05-10T00:29:54.378Z,55.00
2018-05-10T00:32:21.970Z,55.10
2018-05-10T00:34:49.560Z,55.20
2018-05-10T00:37:17.193Z,55.10
2018-05-10T00:39:44.775Z,55.20
2018-05-10T00:42:12.331Z,55.20
2018-05-10T00:44:39.917Z,55.20
2018-05-10T00:47:07.479Z,55.30
2018-05-10T00:49:35.086Z,55.30
2018-05-10T00:52:02.642Z,56.00
2018-05-10T00:54:42.978Z,55.40
2018-05-10T00:57:10.590Z,55.30
2018-05-10T00:59:38.173Z,55.40
2018-05-10T01:02:05.783Z,55.40
2018-05-10T01:04:34.145Z,55.30
2018-05-10T01:07:01.741Z,55.30
2018-05-10T01:09:29.303Z,55.30
2018-05-10T01:11:56.895Z,55.30
2018-05-10T01:14:24.507Z,55.40
2018-05-10T01:16:52.854Z,55.40
2018-05-10T01:19:20.467Z,55.40
2018-05-10T01:21:48.050Z,55.40
2018-05-10T01:24:15.659Z,55.40
2018-05-10T01:26:43.981Z,55.60
2018-05-10T01:29:11.566Z,55.60
2018-05-10T01:31:39.150Z,55.50
2018-05-10T01:34:06.755Z,55.70
2018-05-10T01:36:34.314Z,55.50
2018-05-10T01:39:01.920Z,55.50
2018-05-10T01:41:29.542Z,55.40
2018-05-10T01:43:57.098Z,55.50
2018-05-10T01:46:24.682Z,55.50
2018-05-10T01:48:52.267Z,55.50
2018-05-10T01:51:19.855Z,55.50
2018-05-10T01:53:48.201Z,55.60
2018-05-10T01:56:15.760Z,55.50
2018-05-10T01:58:43.374Z,55.60
2018-05-10T02:01:10.958Z,55.70
2018-05-10T02:03:38.565Z,55.80
2018-05-10T02:06:06.127Z,55.70
2018-05-10T02:08:34.475Z,56.40
2018-05-10T02:11:02.065Z,55.70
2018-05-10T02:13:30.414Z,55.80
2018-05-10T02:15:57.999Z,55.80
2018-05-10T02:18:25.611Z,55.80
2018-05-10T02:20:53.198Z,55.80
2018-05-10T02:23:20.827Z,55.80
2018-05-10T02:25:48.391Z,55.80
2018-05-10T02:28:15.983Z,55.90
2018-05-10T02:30:43.571Z,55.90
2018-05-10T02:33:11.151Z,55.90
2018-05-10T02:35:38.748Z,55.80
2018-05-10T02:38:06.310Z,55.80
2018-05-10T02:40:33.907Z,55.80
2018-05-10T02:43:02.291Z,56.20
2018-05-10T02:45:30.644Z,55.90
2018-05-10T02:47:58.259Z,55.90
2018-05-10T02:50:25.847Z,55.90
2018-05-10T02:52:53.434Z,55.90
2018-05-10T02:55:20.992Z,55.90
2018-05-10T02:57:48.614Z,55.80
2018-05-10T03:00:16.962Z,55.90
2018-05-10T03:02:44.575Z,55.90
2018-05-10T03:05:12.131Z,55.70
2018-05-10T03:07:39.742Z,55.50
2018-05-10T03:10:07.326Z,55.30
2018-05-10T03:12:34.934Z,55.20
2018-05-10T03:15:02.519Z,55.20
2018-05-10T03:17:30.131Z,55.10
2018-05-10T03:19:57.694Z,55.20
2018-05-10T03:22:25.284Z,55.30
2018-05-10T03:24:52.882Z,55.30
2018-05-10T03:27:22.474Z,55.30
2018-05-10T03:29:50.033Z,55.50
2018-05-10T03:32:17.642Z,55.50
2018-05-10T03:34:45.998Z,55.50
2018-05-10T03:37:14.329Z,55.50
2018-05-10T03:39:41.911Z,55.50
2018-05-10T03:42:09.466Z,55.50
2018-05-10T03:44:37.089Z,55.60
2018-05-10T03:47:04.678Z,55.60
2018-05-10T03:49:32.462Z,55.50
2018-05-10T03:52:00.079Z,55.60
2018-05-10T03:54:27.706Z,55.70
2018-05-10T03:56:55.258Z,55.70
2018-05-10T03:59:22.814Z,55.70
2018-05-10T04:01:50.406Z,55.80
2018-05-10T04:04:29.801Z,55.80
2018-05-10T04:07:09.230Z,55.80
2018-05-10T04:12:44.338Z,55.80
2018-05-10T04:15:11.922Z,55.90
2018-05-10T04:17:39.478Z,56.00
2018-05-10T04:20:07.106Z,56.00
2018-05-10T04:22:34.658Z,56.00
2018-05-10T04:25:02.251Z,56.00
2018-05-10T04:27:29.854Z,56.00
2018-05-10T04:29:58.201Z,55.90
2018-05-10T04:32:25.807Z,55.80
2018-05-10T04:34:53.365Z,55.80
2018-05-10T04:37:20.955Z,55.70
2018-05-10T04:39:48.535Z,55.70
2018-05-10T04:42:16.092Z,55.70
2018-05-10T04:44:43.702Z,55.60
2018-05-10T04:47:11.258Z,55.60
2018-05-10T04:49:38.880Z,55.70
2018-05-10T04:52:07.202Z,55.50
2018-05-10T04:54:34.791Z,55.50
2018-05-10T04:57:02.399Z,55.50
2018-05-10T04:59:30.003Z,55.50
2018-05-10T05:01:57.590Z,55.40
2018-05-10T05:04:25.148Z,55.40
2018-05-10T05:06:53.543Z,55.40
2018-05-10T05:09:21.127Z,55.40
2018-05-10T05:11:48.794Z,55.40
2018-05-10T05:14:17.118Z,55.50
2018-05-10T05:16:45.462Z,55.60
2018-05-10T05:19:13.083Z,55.40
2018-05-10T05:21:40.690Z,55.50
2018-05-10T05:24:08.279Z,55.40
2018-05-10T05:26:36.599Z,55.20
2018-05-10T05:29:04.206Z,55.20
2018-05-10T05:31:31.795Z,55.20
2018-05-10T05:33:59.383Z,55.10
2018-05-10T05:36:26.976Z,55.30
2018-05-10T05:38:55.330Z,55.10
2018-05-10T05:41:22.991Z,55.80
2018-05-10T05:43:50.534Z,55.30
2018-05-10T05:46:18.147Z,55.50
2018-05-10T05:48:45.752Z,55.70
2018-05-10T05:51:13.448Z,55.80
2018-05-10T05:53:40.982Z,55.90
2018-05-10T05:56:08.590Z,56.00
2018-05-10T05:58:36.214Z,56.10
2018-05-10T06:01:03.774Z,56.40
2018-05-10T06:03:31.362Z,56.60
2018-05-10T06:05:59.711Z,56.60
2018-05-10T06:08:27.281Z,56.60
2018-05-10T06:10:54.841Z,56.70
2018-05-10T06:13:22.437Z,56.80
2018-05-10T06:15:50.117Z,56.90
2018-05-10T06:18:17.671Z,57.10
2018-05-10T06:20:45.240Z,57.20
2018-05-10T06:23:12.870Z,57.20
2018-05-10T06:25:41.199Z,57.50
2018-05-10T06:28:09.549Z,57.70
2018-05-10T06:30:37.130Z,57.60
2018-05-10T06:33:04.686Z,57.90
2018-05-10T06:35:32.304Z,58.10
2018-05-10T06:37:59.919Z,58.20
2018-05-10T06:40:27.502Z,58.20
2018-05-10T06:42:55.063Z,58.30
2018-05-10T06:45:22.646Z,58.20
2018-05-10T06:47:50.227Z,58.30
2018-05-10T06:50:17.794Z,58.30
2018-05-10T06:52:46.171Z,58.60
2018-05-10T06:55:14.495Z,58.10
2018-05-10T06:57:42.127Z,57.90
2018-05-10T07:00:10.486Z,56.70
2018-05-10T07:02:38.070Z,56.60
2018-05-10T07:05:05.702Z,56.70
2018-05-10T07:07:33.286Z,56.00
2018-05-10T07:10:01.772Z,54.70
2018-05-10T07:12:29.263Z,54.70
2018-05-10T07:14:56.848Z,54.40
2018-05-10T07:17:24.430Z,54.10
2018-05-10T07:19:52.016Z,54.50
2018-05-10T07:22:19.626Z,54.20
2018-05-10T07:24:47.226Z,54.40
2018-05-10T07:27:14.814Z,54.80
2018-05-10T07:29:42.396Z,55.00
2018-05-10T07:32:09.987Z,54.90
2018-05-10T07:34:38.341Z,55.70
2018-05-10T07:37:05.906Z,56.30
2018-05-10T07:39:33.515Z,54.20
2018-05-10T07:42:01.185Z,53.80
2018-05-10T07:44:28.743Z,55.40
2018-05-10T07:46:56.367Z,54.30
2018-05-10T07:49:24.759Z,55.10
2018-05-10T07:51:52.346Z,55.00
2018-05-10T07:54:19.947Z,54.70
2018-05-10T07:56:47.542Z,54.60
2018-05-10T07:59:15.102Z,57.40
2018-05-10T08:01:43.478Z,56.90
2018-05-10T08:04:11.835Z,56.40
2018-05-10T08:06:39.435Z,56.40
2018-05-10T08:09:07.022Z,57.40
2018-05-10T08:11:34.613Z,55.50
2018-05-10T08:14:02.231Z,54.20
2018-05-10T08:16:29.823Z,54.90
2018-05-10T08:18:57.433Z,55.10
2018-05-10T08:21:31.115Z,56.00
2018-05-10T08:23:59.479Z,58.90
2018-05-10T08:26:27.039Z,58.90
2018-05-10T08:28:54.629Z,58.90
2018-05-10T08:31:22.977Z,57.00
2018-05-10T08:33:50.547Z,56.90
2018-05-10T08:36:18.166Z,59.40
2018-05-10T08:38:45.756Z,58.90
2018-05-10T08:41:13.378Z,59.30
2018-05-10T08:43:40.938Z,57.60
2018-05-10T08:46:08.549Z,56.50
2018-05-10T08:48:36.111Z,56.00
2018-05-10T08:51:03.747Z,57.00
2018-05-10T08:53:31.338Z,59.30
2018-05-10T08:55:58.924Z,59.90
2018-05-10T08:58:26.511Z,58.50
2018-05-10T09:00:54.075Z,56.00
2018-05-10T09:03:21.658Z,55.90
2018-05-10T09:05:49.229Z,57.50
2018-05-10T09:08:16.814Z,56.00
2018-05-10T09:10:45.151Z,56.50
2018-05-10T09:13:12.735Z,56.50
2018-05-10T09:15:40.327Z,58.10
2018-05-10T09:18:07.975Z,58.10
2018-05-10T09:20:36.330Z,58.60
2018-05-10T09:23:04.059Z,58.50
2018-05-10T09:25:31.710Z,56.20
2018-05-10T09:27:59.303Z,57.80
2018-05-10T09:30:26.927Z,55.80
2018-05-10T09:32:54.499Z,55.30
2018-05-10T09:35:22.082Z,54.70
2018-05-10T09:37:49.662Z,56.20
2018-05-10T09:40:17.320Z,56.30
2018-05-10T09:42:45.691Z,53.30
2018-05-10T09:45:13.303Z,53.30
2018-05-10T09:47:40.870Z,57.30
2018-05-10T09:50:08.461Z,57.30
2018-05-10T09:52:36.945Z,58.30
2018-05-10T09:55:05.230Z,59.40
2018-05-10T09:57:33.806Z,58.70
2018-05-10T10:00:02.168Z,59.90
2018-05-10T10:02:29.803Z,59.20
2018-05-10T10:04:57.363Z,59.30
2018-05-10T10:07:25.714Z,59.10
2018-05-10T10:09:53.299Z,59.10
2018-05-10T10:12:20.899Z,59.90
2018-05-10T10:14:48.510Z,59.00
2018-05-10T10:17:16.863Z,58.60
2018-05-10T10:19:44.506Z,58.50
2018-05-10T10:22:12.067Z,58.40
2018-05-10T10:24:39.660Z,58.20
2018-05-10T10:27:08.011Z,57.60
2018-05-10T10:29:35.639Z,57.50
2018-05-10T10:32:04.022Z,57.40
2018-05-10T10:34:31.666Z,57.20
2018-05-10T10:37:00.031Z,57.20
2018-05-10T10:39:27.622Z,57.20
2018-05-10T10:41:55.280Z,57.40
2018-05-10T10:44:22.843Z,57.40
2018-05-10T10:46:50.438Z,56.90
2018-05-10T10:49:19.096Z,56.50
2018-05-10T10:51:46.690Z,55.90
2018-05-10T10:54:14.323Z,55.50
2018-05-10T10:56:41.926Z,55.50
2018-05-10T10:59:09.538Z,55.80
2018-05-10T11:01:37.231Z,55.90
2018-05-10T11:04:04.788Z,56.20
2018-05-10T11:06:32.378Z,56.30
2018-05-10T11:09:00.367Z,55.90
2018-05-10T11:11:27.961Z,55.40
2018-05-10T11:13:55.627Z,55.50
2018-05-10T11:16:23.251Z,55.40
2018-05-10T11:18:50.871Z,55.10
2018-05-10T11:21:18.435Z,54.50
2018-05-10T11:23:46.019Z,54.30
2018-05-10T11:26:13.612Z,53.90
2018-05-10T11:28:42.059Z,53.60
2018-05-10T11:31:09.651Z,53.60
2018-05-10T11:33:38.017Z,53.20
2018-05-10T11:36:05.670Z,53.10
2018-05-10T11:38:33.235Z,53.30
2018-05-10T11:41:00.822Z,53.00
2018-05-10T11:43:28.450Z,53.20
2018-05-10T11:45:56.066Z,53.00
2018-05-10T11:48:23.631Z,53.20
2018-05-10T11:50:51.196Z,53.50
2018-05-10T11:53:18.814Z,53.80
2018-05-10T11:55:47.146Z,54.40
2018-05-10T11:58:14.758Z,54.40
2018-05-10T12:00:43.141Z,53.50
2018-05-10T12:03:11.518Z,53.10
2018-05-10T12:05:39.843Z,53.00
2018-05-10T12:08:08.209Z,53.50
2018-05-10T12:10:35.778Z,53.50
2018-05-10T12:13:03.363Z,52.50
2018-05-10T12:15:30.951Z,52.40
2018-05-10T12:17:58.544Z,53.00
2018-05-10T12:20:26.987Z,54.00
2018-05-10T12:22:55.811Z,53.90
2018-05-10T12:25:23.406Z,53.90
2018-05-10T12:27:50.990Z,54.20
2018-05-10T12:30:18.589Z,53.80
2018-05-10T12:32:46.187Z,53.50
2018-05-10T12:35:13.798Z,53.10
2018-05-10T12:37:41.451Z,51.50
2018-05-10T12:40:09.008Z,51.50
2018-05-10T12:42:36.599Z,51.50
2018-05-10T12:45:04.227Z,51.20
2018-05-10T12:47:31.792Z,50.10
2018-05-10T12:49:59.382Z,49.20
2018-05-10T12:52:27.004Z,49.20
2018-05-10T12:54:54.589Z,48.90
2018-05-10T12:57:22.211Z,48.90
2018-05-10T12:59:49.814Z,49.30
2018-05-10T13:02:17.407Z,49.70
2018-05-10T13:04:45.732Z,50.20
2018-05-10T13:07:13.326Z,50.20
2018-05-10T13:09:40.911Z,50.20
2018-05-10T13:12:09.235Z,50.20
2018-05-10T13:14:36.846Z,50.20
2018-05-10T13:17:05.178Z,51.20
2018-05-10T13:19:32.893Z,51.10
2018-05-10T13:22:00.420Z,51.30
2018-05-10T13:24:27.983Z,51.00
2018-05-10T13:26:55.571Z,50.60
2018-05-10T13:29:23.954Z,50.70
2018-05-10T13:31:52.331Z,51.00
2018-05-10T13:34:20.655Z,51.40
2018-05-10T13:36:48.222Z,51.40
2018-05-10T13:39:15.811Z,50.10
2018-05-10T13:41:43.410Z,50.20
2018-05-10T13:44:11.003Z,49.80
2018-05-10T13:46:38.590Z,49.40
2018-05-10T13:49:06.179Z,49.10
2018-05-10T13:51:34.530Z,49.00
2018-05-10T13:54:02.118Z,49.10
2018-05-10T13:56:30.517Z,48.90
2018-05-10T13:58:58.152Z,48.90
2018-05-10T14:01:25.690Z,48.90
2018-05-10T14:03:53.294Z,48.20
2018-05-10T14:06:20.903Z,48.20
2018-05-10T14:08:48.462Z,48.60
2018-05-10T14:11:16.051Z,48.50
2018-05-10T14:13:44.387Z,49.30
2018-05-10T14:16:12.014Z,49.10
2018-05-10T14:18:39.638Z,51.90
2018-05-10T14:21:07.243Z,52.60
2018-05-10T14:23:34.826Z,53.40
2018-05-10T14:26:02.451Z,54.00
2018-05-10T14:28:30.821Z,54.70
2018-05-10T14:30:59.174Z,54.80
2018-05-10T14:33:26.758Z,54.80
2018-05-10T14:35:55.143Z,54.70
2018-05-10T14:38:23.470Z,55.20
2018-05-10T14:40:51.086Z,55.20
2018-05-10T14:43:19.415Z,55.90
2018-05-10T14:45:47.007Z,55.90
2018-05-10T14:48:14.598Z,56.40
2018-05-10T14:50:42.159Z,56.20
2018-05-10T14:53:09.774Z,56.50
2018-05-10T14:55:37.373Z,56.70
2018-05-10T14:58:05.721Z,56.50
2018-05-10T15:00:33.325Z,56.50
2018-05-10T15:03:00.920Z,56.40
2018-05-10T15:05:28.483Z,56.10
2018-05-10T15:07:56.099Z,54.90
2018-05-10T15:10:23.710Z,55.00
2018-05-10T15:12:51.271Z,54.90
2018-05-10T15:15:18.906Z,56.40
2018-05-10T15:17:46.466Z,59.50
2018-05-10T15:20:14.059Z,68.50
2018-05-10T15:22:41.651Z,72.50
2018-05-10T15:25:10.016Z,75.40
2018-05-10T15:27:37.619Z,75.40
2018-05-10T15:30:05.179Z,76.60
2018-05-10T15:32:32.740Z,77.00
2018-05-10T15:35:00.364Z,78.20
2018-05-10T15:37:28.726Z,78.60
2018-05-10T15:39:56.366Z,78.70
2018-05-10T15:42:23.955Z,78.30
2018-05-10T15:44:51.543Z,78.40
2018-05-10T15:47:19.898Z,76.80
2018-05-10T15:49:47.485Z,76.90
2018-05-10T15:52:15.834Z,75.00
2018-05-10T15:54:43.423Z,75.00
2018-05-10T15:57:11.754Z,73.70
2018-05-10T15:59:39.340Z,73.60
2018-05-10T16:02:06.930Z,73.70
2018-05-10T16:04:34.565Z,73.10
2018-05-10T16:07:02.150Z,72.30
2018-05-10T16:09:30.508Z,72.60
2018-05-10T16:11:58.935Z,72.00
2018-05-10T16:14:26.495Z,72.00
2018-05-10T16:16:54.118Z,72.00
2018-05-10T16:19:22.470Z,71.20
2018-05-10T16:21:50.067Z,71.20
2018-05-10T16:24:18.399Z,74.30
2018-05-10T16:26:45.962Z,74.20
2018-05-10T16:29:13.591Z,76.30
2018-05-10T16:31:41.167Z,75.50
2018-05-10T16:34:08.759Z,77.50
2018-05-10T16:36:36.370Z,77.50
2018-05-10T16:39:03.961Z,77.20
2018-05-10T16:41:31.587Z,78.00
2018-05-10T16:43:59.200Z,78.10
2018-05-10T16:46:26.781Z,78.30
2018-05-10T16:48:55.157Z,73.70
2018-05-10T16:51:23.523Z,74.40
2018-05-10T16:53:51.107Z,73.40
2018-05-10T16:56:19.459Z,71.80
2018-05-10T16:58:47.026Z,71.80
2018-05-10T17:01:14.639Z,73.20
2018-05-10T17:03:42.195Z,73.00
2018-05-10T17:06:09.783Z,73.50
2018-05-10T17:08:37.346Z,73.20
2018-05-10T17:11:04.954Z,72.90
2018-05-10T17:13:32.542Z,71.20
2018-05-10T17:16:00.154Z,70.40
2018-05-10T17:18:27.829Z,69.70
2018-05-10T17:20:55.361Z,68.50
2018-05-10T17:23:22.978Z,69.50
2018-05-10T17:25:50.586Z,68.10
2018-05-10T17:28:18.166Z,67.20
2018-05-10T17:30:45.723Z,67.80
2018-05-10T17:33:13.331Z,68.10
2018-05-10T17:35:40.931Z,67.80
2018-05-10T17:38:08.555Z,67.40
2018-05-10T17:40:36.152Z,66.80
2018-05-10T17:43:03.734Z,66.50
2018-05-10T17:45:31.362Z,65.30
2018-05-10T17:47:58.922Z,64.90
2018-05-10T17:50:26.483Z,64.30
2018-05-10T17:52:54.067Z,64.20
2018-05-10T17:55:21.702Z,63.80
2018-05-10T17:57:49.281Z,63.40
2018-05-10T18:00:16.901Z,62.40
2018-05-10T18:02:44.538Z,62.20
2018-05-10T18:05:12.875Z,61.20
2018-05-10T18:07:40.467Z,61.10
2018-05-10T18:10:08.847Z,60.70
2018-05-10T18:12:37.224Z,59.80
2018-05-10T18:15:05.609Z,59.80
2018-05-10T18:17:33.213Z,59.80
2018-05-10T18:20:00.822Z,59.80
2018-05-10T18:22:28.422Z,59.60
2018-05-10T18:24:56.019Z,59.40
2018-05-10T18:27:24.378Z,60.00
2018-05-10T18:29:51.991Z,59.20
2018-05-10T18:32:19.602Z,59.70
2018-05-10T18:34:47.162Z,60.30
2018-05-10T18:37:14.766Z,60.00
2018-05-10T18:39:42.993Z,61.20
2018-05-10T18:42:11.402Z,60.80
2018-05-10T18:44:39.754Z,60.70
2018-05-10T18:47:07.370Z,60.70
2018-05-10T18:49:34.984Z,61.50
2018-05-10T18:52:02.568Z,60.80
2018-05-10T18:54:30.174Z,60.60
2018-05-10T18:56:57.799Z,60.50
2018-05-10T18:59:26.202Z,60.80
2018-05-10T19:01:53.840Z,60.80
2018-05-10T19:04:21.445Z,61.40
2018-05-10T19:06:49.043Z,62.10
2018-05-10T19:09:16.670Z,63.10
2018-05-10T19:11:44.258Z,64.00
2018-05-10T19:14:11.815Z,64.60
2018-05-10T19:16:39.414Z,65.10
2018-05-10T19:19:07.006Z,66.30
2018-05-10T19:21:34.595Z,66.50
2018-05-10T19:24:02.210Z,66.80
2018-05-10T19:26:29.849Z,67.90
2018-05-10T19:28:57.383Z,68.50
2018-05-10T19:31:25.010Z,69.70
2018-05-10T19:33:53.370Z,70.70
2018-05-10T19:36:20.988Z,70.70
2018-05-10T19:38:48.599Z,71.20
2018-05-10T19:41:16.171Z,71.50
2018-05-10T19:43:44.519Z,72.40
2018-05-10T19:46:12.081Z,72.30
2018-05-10T19:48:40.455Z,72.70
2018-05-10T19:51:08.010Z,72.70
2018-05-10T19:53:35.573Z,73.20
2018-05-10T19:56:03.954Z,73.90
2018-05-10T19:58:31.542Z,73.80
2018-05-10T20:00:59.158Z,73.80
2018-05-10T20:03:27.482Z,73.90
2018-05-10T20:05:55.077Z,73.90
2018-05-10T20:08:22.669Z,74.10
2018-05-10T20:10:50.284Z,74.20
2018-05-10T20:13:17.904Z,74.40
2018-05-10T20:15:45.526Z,74.50
2018-05-10T20:18:13.091Z,74.50
2018-05-10T20:20:40.706Z,74.80
2018-05-10T20:23:08.343Z,74.70
2018-05-10T20:25:35.932Z,74.60
2018-05-10T20:28:03.515Z,74.90
2018-05-10T20:30:31.126Z,74.80
2018-05-10T20:32:59.478Z,74.90
2018-05-10T20:35:27.048Z,74.90
2018-05-10T20:37:54.660Z,74.80
2018-05-10T20:40:22.223Z,74.20
2018-05-10T20:42:50.558Z,74.00
2018-05-10T20:45:18.171Z,73.90
2018-05-10T20:47:45.751Z,74.10
2018-05-10T20:50:13.329Z,73.70
2018-05-10T20:52:41.666Z,75.20
2018-05-10T20:55:10.049Z,74.80
2018-05-10T20:57:37.666Z,74.80
2018-05-10T21:00:05.258Z,75.00
2018-05-10T21:02:32.826Z,75.30
2018-05-10T21:05:00.410Z,74.90
2018-05-10T21:07:28.050Z,74.70
2018-05-10T21:09:55.694Z,74.20
2018-05-10T21:12:45.107Z,74.50
2018-05-10T21:15:12.662Z,74.70
2018-05-10T21:17:40.250Z,74.20
2018-05-10T21:20:07.842Z,74.00
2018-05-10T21:22:36.167Z,73.90
2018-05-10T21:25:03.778Z,73.90
2018-05-10T21:27:32.154Z,73.10
2018-05-10T21:30:00.483Z,73.70
2018-05-10T21:32:28.091Z,73.60
2018-05-10T21:34:55.660Z,73.90
2018-05-10T21:37:23.275Z,74.10
2018-05-10T21:39:50.863Z,74.20
2018-05-10T21:42:18.483Z,74.10
2018-05-10T21:44:46.127Z,74.00
2018-05-10T21:47:14.477Z,74.50
2018-05-10T21:49:53.894Z,74.50
2018-05-10T21:52:21.482Z,74.60
2018-05-10T21:54:49.069Z,74.10
2018-05-10T21:57:17.418Z,74.00
2018-05-10T21:59:44.983Z,73.90
2018-05-10T22:02:12.587Z,73.50
2018-05-10T22:04:40.198Z,73.70
2018-05-10T22:07:07.787Z,73.70
2018-05-10T22:09:36.158Z,74.00
2018-05-10T22:12:04.535Z,74.00
2018-05-10T22:14:32.065Z,74.00
2018-05-10T22:16:59.673Z,74.00
2018-05-10T22:19:28.094Z,73.80
2018-05-10T22:21:55.679Z,73.80
2018-05-10T22:24:23.294Z,73.80
2018-05-10T22:26:50.882Z,74.10
2018-05-10T22:29:19.234Z,74.00
2018-05-10T22:31:46.846Z,74.00
2018-05-10T22:34:14.430Z,73.80
2018-05-10T22:36:42.043Z,73.90
2018-05-10T22:39:09.676Z,73.80
2018-05-10T22:41:37.262Z,73.70
2018-05-10T22:44:04.823Z,73.80
2018-05-10T22:46:32.408Z,73.60
2018-05-10T22:49:00.015Z,73.40
2018-05-10T22:51:27.605Z,73.50
2018-05-10T22:53:55.159Z,74.40
2018-05-10T22:56:22.911Z,73.60
2018-05-10T22:58:50.630Z,73.60
2018-05-10T23:01:18.217Z,73.30
2018-05-10T23:03:46.534Z,72.90
2018-05-10T23:06:14.151Z,72.80
2018-05-10T23:08:41.733Z,72.70
2018-05-10T23:11:09.361Z,72.60
2018-05-10T23:13:37.687Z,73.00
2018-05-10T23:16:05.270Z,72.90
2018-05-10T23:18:32.862Z,73.00
2018-05-10T23:21:01.242Z,72.50
2018-05-10T23:23:29.591Z,72.60
2018-05-10T23:25:57.203Z,72.60
2018-05-10T23:28:25.583Z,72.40
2018-05-10T23:30:53.903Z,72.30
2018-05-10T23:33:22.294Z,72.30
2018-05-10T23:35:50.638Z,72.20
2018-05-10T23:38:18.259Z,72.20
2018-05-10T23:40:45.866Z,72.20
2018-05-10T23:43:13.451Z,72.10
2018-05-10T23:45:41.793Z,71.50
2018-05-10T23:48:09.359Z,71.50
2018-05-10T23:50:36.947Z,71.50
2018-05-10T23:53:05.294Z,71.40
2018-05-10T23:55:32.883Z,71.40
2018-05-10T23:58:00.470Z,71.30
